createdAt,value
2019-02-06T00:00:43.861Z,28.20
2019-02-06T00:03:19.307Z,26.02
2019-02-06T00:05:54.523Z,26.80
2019-02-06T00:08:23.990Z,27.15
2019-02-06T00:10:54.964Z,28.40
2019-02-06T00:13:25.426Z,28.02
2019-02-06T00:16:03.912Z,26.95
2019-02-06T00:18:35.133Z,24.37
2019-02-06T00:21:06.115Z,24.15
2019-02-06T00:23:35.315Z,23.85
2019-02-06T00:26:04.753Z,25.17
2019-02-06T00:28:36.166Z,23.62
2019-02-06T00:31:07.087Z,25.70
2019-02-06T00:33:36.393Z,23.10
2019-02-06T00:36:08.848Z,22.47
2019-02-06T00:38:39.852Z,23.40
2019-02-06T00:41:12.139Z,22.50
2019-02-06T00:43:43.337Z,22.67
2019-02-06T00:46:13.043Z,23.40
2019-02-06T00:48:48.674Z,24.98
2019-02-06T00:51:17.888Z,24.70
2019-02-06T00:53:47.466Z,24.27
2019-02-06T00:56:18.268Z,24.70
2019-02-06T00:58:49.106Z,25.37
2019-02-06T01:01:20.784Z,25.05
2019-02-06T01:03:49.966Z,22.95
2019-02-06T01:06:23.554Z,21.82
2019-02-06T01:08:52.876Z,23.40
2019-02-06T01:11:22.482Z,23.75
2019-02-06T01:16:45.526Z,23.38
2019-02-06T01:19:18.045Z,24.52
2019-02-06T01:21:47.355Z,20.27
2019-02-06T01:24:18.242Z,20.77
2019-02-06T01:26:48.416Z,20.88
2019-02-06T01:29:17.652Z,22.53
2019-02-06T01:31:47.308Z,19.85
2019-02-06T01:34:16.688Z,21.33
2019-02-06T01:36:45.883Z,19.48
2019-02-06T01:39:19.377Z,20.07
2019-02-06T01:41:49.840Z,20.65
2019-02-06T01:44:19.036Z,21.77
2019-02-06T01:46:48.799Z,18.98
2019-02-06T01:49:23.580Z,21.40
2019-02-06T01:51:52.783Z,20.43
2019-02-06T01:54:23.594Z,21.40
2019-02-06T01:56:56.222Z,20.27
2019-02-06T01:59:26.114Z,18.15
2019-02-06T02:02:02.814Z,18.73
2019-02-06T02:04:33.367Z,18.70
2019-02-06T02:07:23.613Z,20.70
2019-02-06T02:09:53.270Z,18.23
2019-02-06T02:12:22.475Z,18.37
2019-02-06T02:14:53.283Z,20.83
2019-02-06T02:17:28.697Z,18.75
2019-02-06T02:19:58.582Z,20.08
2019-02-06T02:22:28.559Z,22.07
2019-02-06T02:25:02.479Z,20.40
2019-02-06T02:27:35.269Z,20.02
2019-02-06T02:30:08.593Z,18.73
2019-02-06T02:32:40.913Z,19.35
2019-02-06T02:35:12.383Z,19.80
2019-02-06T02:37:42.921Z,21.87
2019-02-06T02:40:12.851Z,21.87
2019-02-06T02:42:42.170Z,21.45
2019-02-06T02:45:16.805Z,22.97
2019-02-06T02:47:46.422Z,21.70
2019-02-06T02:50:15.592Z,24.07
2019-02-06T02:52:44.877Z,22.10
2019-02-06T02:55:14.410Z,23.63
2019-02-06T02:57:44.950Z,22.45
2019-02-06T03:00:23.059Z,22.52
2019-02-06T03:02:59.124Z,21.17
2019-02-06T03:05:31.637Z,21.02
2019-02-06T03:08:03.176Z,21.68
2019-02-06T03:10:36.949Z,21.95
2019-02-06T03:13:06.545Z,22.05
2019-02-06T03:15:36.203Z,20.80
2019-02-06T03:18:05.522Z,21.65
2019-02-06T03:20:37.491Z,20.57
2019-02-06T03:23:06.758Z,20.65
2019-02-06T03:25:36.399Z,20.17
2019-02-06T03:28:10.466Z,20.97
2019-02-06T03:30:39.681Z,19.77
2019-02-06T03:33:08.842Z,20.70
2019-02-06T03:35:38.103Z,21.30
2019-02-06T03:38:07.307Z,22.27
2019-02-06T03:40:39.649Z,20.53
2019-02-06T03:43:10.521Z,20.10
2019-02-06T03:45:39.770Z,20.32
2019-02-06T03:48:12.285Z,20.65
2019-02-06T03:50:44.750Z,18.73
2019-02-06T03:53:20.152Z,22.22
2019-02-06T03:55:51.176Z,21.60
2019-02-06T03:58:23.440Z,23.20
2019-02-06T04:00:52.638Z,24.75
2019-02-06T04:03:26.574Z,24.43
2019-02-06T04:05:57.481Z,24.37
2019-02-06T04:08:27.771Z,25.57
2019-02-06T04:10:57.060Z,25.35
2019-02-06T04:13:26.216Z,23.00
2019-02-06T04:15:57.116Z,24.27
2019-02-06T04:18:28.080Z,24.92
2019-02-06T04:20:57.366Z,23.22
2019-02-06T04:23:31.188Z,23.17
2019-02-06T04:26:05.111Z,23.60
2019-02-06T04:28:37.526Z,23.38
2019-02-06T04:31:07.544Z,24.80
2019-02-06T04:33:38.980Z,26.40
2019-02-06T04:36:09.882Z,25.62
2019-02-06T04:38:39.108Z,24.65
2019-02-06T04:41:08.283Z,25.83
2019-02-06T04:43:39.137Z,27.60
2019-02-06T04:46:09.993Z,27.20
2019-02-06T04:48:43.476Z,27.27
2019-02-06T04:51:19.930Z,27.58
2019-02-06T04:53:51.958Z,29.23
2019-02-06T04:56:21.932Z,28.87
2019-02-06T04:58:52.907Z,28.60
2019-02-06T05:01:22.099Z,28.87
2019-02-06T05:03:52.957Z,29.20
2019-02-06T05:06:22.489Z,29.80
2019-02-06T05:08:57.437Z,31.97
2019-02-06T05:11:26.655Z,30.97
2019-02-06T05:13:58.073Z,30.57
2019-02-06T05:16:29.218Z,32.53
2019-02-06T05:19:03.316Z,32.65
2019-02-06T05:21:32.534Z,30.05
2019-02-06T05:24:06.911Z,34.37
2019-02-06T05:26:37.232Z,34.63
2019-02-06T05:29:14.939Z,34.65
2019-02-06T05:31:45.370Z,33.58
2019-02-06T05:34:19.353Z,32.98
2019-02-06T05:36:50.908Z,32.50
2019-02-06T05:39:19.514Z,32.33
2019-02-06T05:41:52.714Z,33.65
2019-02-06T05:44:22.051Z,33.15
2019-02-06T05:46:53.510Z,32.60
2019-02-06T05:49:22.853Z,33.28
2019-02-06T05:51:52.054Z,34.00
2019-02-06T05:54:24.135Z,32.13
2019-02-06T05:56:58.043Z,33.00
2019-02-06T05:59:25.849Z,33.48
2019-02-06T06:02:01.410Z,34.85
2019-02-06T06:04:30.623Z,32.75
2019-02-06T06:07:00.299Z,31.90
2019-02-06T06:09:29.530Z,35.27
2019-02-06T06:11:58.916Z,35.17
2019-02-06T06:14:32.127Z,34.63
2019-02-06T06:17:02.990Z,36.00
2019-02-06T06:19:34.250Z,37.78
2019-02-06T06:22:03.313Z,35.60
2019-02-06T06:24:32.609Z,38.40
2019-02-06T06:27:02.273Z,35.52
2019-02-06T06:29:35.657Z,35.45
2019-02-06T06:32:07.520Z,36.53
2019-02-06T06:34:39.750Z,37.28
2019-02-06T06:37:08.951Z,36.05
2019-02-06T06:39:40.326Z,36.27
2019-02-06T06:42:15.656Z,33.95
2019-02-06T06:44:48.886Z,33.83
2019-02-06T06:47:18.281Z,35.65
2019-02-06T06:49:51.712Z,34.27
2019-02-06T06:52:25.627Z,32.78
2019-02-06T06:54:58.360Z,31.45
2019-02-06T06:57:27.696Z,35.88
2019-02-06T06:59:57.270Z,34.73
2019-02-06T07:02:28.169Z,33.60
2019-02-06T07:04:57.390Z,32.25
2019-02-06T07:07:32.404Z,33.03
2019-02-06T07:10:05.532Z,31.52
2019-02-06T07:12:34.740Z,32.50
2019-02-06T07:15:08.744Z,29.70
2019-02-06T07:17:39.690Z,32.88
2019-02-06T07:20:12.099Z,30.93
2019-02-06T07:22:45.748Z,32.03
2019-02-06T07:25:23.698Z,29.20
2019-02-06T07:27:59.764Z,29.27
2019-02-06T07:30:33.877Z,29.12
2019-02-06T07:33:03.171Z,31.33
2019-02-06T07:35:34.161Z,30.10
2019-02-06T07:38:03.367Z,29.85
2019-02-06T07:40:38.732Z,30.12
2019-02-06T07:43:11.976Z,30.37
2019-02-06T07:45:42.803Z,29.92
2019-02-06T07:48:12.060Z,30.50
2019-02-06T07:50:45.255Z,28.50
2019-02-06T07:53:21.736Z,31.35
2019-02-06T07:55:50.951Z,29.75
2019-02-06T07:58:20.121Z,30.23
2019-02-06T08:00:53.069Z,28.95
2019-02-06T08:03:25.402Z,1.00
2019-02-06T08:05:55.667Z,30.25
2019-02-06T08:08:35.666Z,29.12
2019-02-06T08:11:02.915Z,28.42
2019-02-06T08:13:33.278Z,27.77
2019-02-06T08:16:07.188Z,26.90
2019-02-06T08:18:38.585Z,27.85
2019-02-06T08:24:38.474Z,28.75
2019-02-06T08:27:07.678Z,29.80
2019-02-06T08:29:36.912Z,30.07
2019-02-06T08:32:06.741Z,29.27
2019-02-06T08:34:37.605Z,28.73
2019-02-06T08:41:30.899Z,27.00
2019-02-06T08:46:31.898Z,26.80
2019-02-06T08:49:02.857Z,26.65
2019-02-06T08:51:34.809Z,28.12
2019-02-06T08:54:04.183Z,28.37
2019-02-06T08:56:35.098Z,27.50
2019-02-06T08:59:07.308Z,27.62
2019-02-06T09:01:40.736Z,26.07
2019-02-06T09:04:14.420Z,23.00
2019-02-06T09:06:46.434Z,25.75
2019-02-06T09:09:18.146Z,24.90
2019-02-06T09:11:47.358Z,23.67
2019-02-06T09:14:21.738Z,25.30
2019-02-06T09:16:51.198Z,24.20
2019-02-06T09:19:20.986Z,25.55
2019-02-06T09:21:56.339Z,22.73
2019-02-06T09:24:27.182Z,24.25
2019-02-06T09:26:56.490Z,24.85
2019-02-06T09:29:25.678Z,24.07
2019-02-06T09:31:59.443Z,22.82
2019-02-06T09:34:29.066Z,21.45
2019-02-06T09:37:00.115Z,21.40
2019-02-06T09:39:29.328Z,21.20
2019-02-06T09:41:58.806Z,21.93
2019-02-06T09:44:32.256Z,19.90
2019-02-06T09:47:05.517Z,20.57
2019-02-06T09:49:41.651Z,21.17
2019-02-06T09:52:12.827Z,21.60
2019-02-06T09:54:42.107Z,20.75
2019-02-06T09:57:14.650Z,21.17
2019-02-06T09:59:47.138Z,21.02
2019-02-06T10:02:16.346Z,20.62
2019-02-06T10:04:48.217Z,21.73
2019-02-06T10:07:17.783Z,18.05
2019-02-06T10:09:47.060Z,20.97
2019-02-06T10:12:16.960Z,21.20
2019-02-06T10:14:49.419Z,19.45
2019-02-06T10:17:20.303Z,20.30
2019-02-06T10:19:52.265Z,18.55
2019-02-06T10:22:21.475Z,18.10
2019-02-06T10:24:52.307Z,18.40
2019-02-06T10:27:24.281Z,17.67
2019-02-06T10:29:54.011Z,16.00
2019-02-06T10:32:29.298Z,16.50
2019-02-06T10:35:01.572Z,16.45
2019-02-06T10:37:32.541Z,16.00
2019-02-06T10:40:10.103Z,17.15
2019-02-06T10:42:39.367Z,16.55
2019-02-06T10:45:21.046Z,17.30
2019-02-06T10:47:50.655Z,17.10
2019-02-06T10:50:25.519Z,17.77
2019-02-06T10:52:54.950Z,17.40
2019-02-06T10:55:28.311Z,17.27
2019-02-06T10:57:57.717Z,16.07
2019-02-06T11:00:32.575Z,16.90
2019-02-06T11:03:08.642Z,16.70
2019-02-06T11:05:37.949Z,16.67
2019-02-06T11:08:07.136Z,15.67
2019-02-06T11:10:39.057Z,15.93
2019-02-06T11:13:11.051Z,13.90
2019-02-06T11:15:40.326Z,14.87
2019-02-06T11:18:11.070Z,16.23
2019-02-06T11:20:40.934Z,14.85
2019-02-06T11:23:13.266Z,14.00
2019-02-06T11:25:42.481Z,14.43
2019-02-06T11:28:13.024Z,15.18
2019-02-06T11:30:45.476Z,15.17
2019-02-06T11:33:18.995Z,16.00
2019-02-06T11:35:47.726Z,16.57
2019-02-06T11:38:16.897Z,17.40
2019-02-06T11:40:46.115Z,15.98
2019-02-06T11:43:15.469Z,16.57
2019-02-06T11:45:44.680Z,16.57
2019-02-06T11:48:19.868Z,17.63
2019-02-06T11:50:52.347Z,16.82
2019-02-06T11:56:02.883Z,18.42
2019-02-06T11:58:32.358Z,18.48
2019-02-06T12:01:06.138Z,18.13
2019-02-06T12:03:35.422Z,17.27
2019-02-06T12:06:04.591Z,17.07
2019-02-06T12:08:36.771Z,17.67
2019-02-06T12:11:10.500Z,15.95
2019-02-06T12:13:39.706Z,16.82
2019-02-06T12:16:11.912Z,16.90
2019-02-06T12:18:42.336Z,17.00
2019-02-06T12:21:13.772Z,16.32
2019-02-06T12:23:46.238Z,15.70
2019-02-06T12:26:15.429Z,16.10
2019-02-06T12:28:44.623Z,16.30
2019-02-06T12:31:13.904Z,17.82
2019-02-06T12:33:43.243Z,14.75
2019-02-06T12:36:15.863Z,15.58
2019-02-06T12:38:53.482Z,15.45
2019-02-06T12:41:22.763Z,15.48
2019-02-06T12:43:51.976Z,14.65
2019-02-06T12:46:21.216Z,15.27
2019-02-06T12:48:53.122Z,14.50
2019-02-06T12:51:22.790Z,16.05
2019-02-06T12:53:52.051Z,15.67
2019-02-06T12:56:21.357Z,16.57
2019-02-06T12:58:52.187Z,15.03
2019-02-06T13:01:21.397Z,15.63
2019-02-06T13:03:56.539Z,14.70
2019-02-06T13:06:25.815Z,16.07
2019-02-06T13:09:00.772Z,14.10
2019-02-06T13:11:30.471Z,14.47
2019-02-06T13:14:05.804Z,14.35
2019-02-06T13:16:35.798Z,13.70
2019-02-06T13:19:05.391Z,14.38
2019-02-06T13:21:36.223Z,14.47
2019-02-06T13:24:08.047Z,14.23
2019-02-06T13:26:44.205Z,15.05
2019-02-06T13:29:13.707Z,16.30
2019-02-06T13:31:45.420Z,15.32
2019-02-06T13:34:14.333Z,14.87
2019-02-06T13:36:43.497Z,17.17
2019-02-06T13:39:14.343Z,16.02
2019-02-06T13:41:48.121Z,16.27
2019-02-06T13:44:17.705Z,14.98
2019-02-06T13:46:53.202Z,15.20
2019-02-06T13:49:21.607Z,15.20
2019-02-06T13:51:51.059Z,16.35
2019-02-06T13:54:20.373Z,16.00
2019-02-06T13:56:52.803Z,16.63
2019-02-06T13:59:22.094Z,16.17
2019-02-06T14:01:51.408Z,15.68
2019-02-06T14:04:23.904Z,16.00
2019-02-06T14:06:55.476Z,16.52
2019-02-06T14:09:26.670Z,17.75
2019-02-06T14:14:31.106Z,15.78
2019-02-06T14:17:02.079Z,16.57
2019-02-06T14:19:31.795Z,16.65
2019-02-06T14:22:04.284Z,16.42
2019-02-06T14:24:37.806Z,15.23
2019-02-06T14:27:29.920Z,15.43
2019-02-06T14:30:38.437Z,15.68
2019-02-06T14:33:32.048Z,16.27
2019-02-06T14:36:24.947Z,16.75
2019-02-06T14:39:10.464Z,16.30
2019-02-06T14:41:48.170Z,18.32
2019-02-06T14:44:38.820Z,19.77
2019-02-06T14:47:14.282Z,19.87
2019-02-06T14:50:05.095Z,19.07
2019-02-06T14:52:58.779Z,19.92
2019-02-06T14:55:42.238Z,19.85
2019-02-06T14:58:29.850Z,20.97
2019-02-06T15:04:37.535Z,20.62
2019-02-06T15:14:19.439Z,19.67
2019-02-06T15:17:04.554Z,22.25
2019-02-06T15:19:49.682Z,22.17
2019-02-06T15:22:27.206Z,22.10
2019-02-06T15:25:05.350Z,22.17
2019-02-06T15:28:16.670Z,21.70
2019-02-06T15:31:00.964Z,21.33
2019-02-06T15:33:42.358Z,21.25
2019-02-06T15:36:14.818Z,22.90
2019-02-06T15:38:52.037Z,22.35
2019-02-06T15:41:31.235Z,22.13
2019-02-06T15:44:13.601Z,22.22
2019-02-06T15:46:48.661Z,23.27
2019-02-06T15:49:41.886Z,21.50
2019-02-06T15:52:38.691Z,22.05
2019-02-06T15:55:25.173Z,22.52
2019-02-06T15:58:00.183Z,21.45
2019-02-06T16:00:48.945Z,17.48
2019-02-06T16:03:31.509Z,16.62
2019-02-06T16:06:14.328Z,17.35
2019-02-06T16:09:00.420Z,17.87
2019-02-06T16:11:42.625Z,16.05
2019-02-06T16:14:27.155Z,15.98
2019-02-06T16:17:17.692Z,16.73
2019-02-06T16:20:24.207Z,16.73
2019-02-06T16:23:02.339Z,15.58
2019-02-06T16:25:49.653Z,15.75
2019-02-06T16:28:42.683Z,15.95
2019-02-06T16:31:24.284Z,16.95
2019-02-06T16:34:16.175Z,16.67
2019-02-06T16:36:57.795Z,16.20
2019-02-06T16:39:30.253Z,16.30
2019-02-06T16:42:20.659Z,15.60
2019-02-06T16:44:53.125Z,15.98
2019-02-06T16:47:45.837Z,18.10
2019-02-06T16:50:23.768Z,16.97
2019-02-06T16:53:01.769Z,16.05
2019-02-06T16:55:52.089Z,17.45
2019-02-06T16:58:53.955Z,17.02
2019-02-06T17:04:29.005Z,15.63
2019-02-06T17:07:28.884Z,16.48
2019-02-06T17:10:31.145Z,17.17
2019-02-06T17:13:03.672Z,15.85
2019-02-06T17:16:11.821Z,17.12
2019-02-06T17:18:53.078Z,16.65
2019-02-06T17:21:36.235Z,17.82
2019-02-06T17:24:24.712Z,16.77
2019-02-06T17:26:57.260Z,17.37
2019-02-06T17:29:38.588Z,17.77
2019-02-06T17:32:46.140Z,18.73
2019-02-06T17:35:30.316Z,18.70
2019-02-06T17:38:20.562Z,18.45
2019-02-06T17:41:04.882Z,19.02
2019-02-06T17:43:37.454Z,20.17
2019-02-06T17:46:15.988Z,19.30
2019-02-06T17:51:34.328Z,19.62
2019-02-06T17:54:21.813Z,20.75
2019-02-06T17:56:51.088Z,18.70
2019-02-06T17:59:23.058Z,20.15
2019-02-06T18:01:52.432Z,19.90
2019-02-06T18:04:22.197Z,20.02
2019-02-06T18:06:57.880Z,21.25
2019-02-06T18:09:27.186Z,18.95
2019-02-06T18:11:58.406Z,19.60
2019-02-06T18:14:29.334Z,20.05
2019-02-06T18:17:00.331Z,18.92
2019-02-06T18:19:29.522Z,20.17
2019-02-06T18:22:00.324Z,20.47
2019-02-06T18:24:29.594Z,20.15
2019-02-06T18:26:58.902Z,20.73
2019-02-06T18:29:29.534Z,20.00
2019-02-06T18:31:58.727Z,21.02
2019-02-06T18:34:27.988Z,21.90
2019-02-06T18:36:57.764Z,21.00
2019-02-06T18:39:30.258Z,22.07
2019-02-06T18:41:59.842Z,21.80
2019-02-06T18:44:29.235Z,20.97
2019-02-06T18:46:59.725Z,20.97
2019-02-06T18:49:37.397Z,22.13
2019-02-06T18:52:07.100Z,22.30
2019-02-06T18:54:38.434Z,22.27
2019-02-06T18:57:08.700Z,22.00
2019-02-06T18:59:38.024Z,22.75
2019-02-06T19:02:13.462Z,23.57
2019-02-06T19:04:47.693Z,22.37
2019-02-06T19:07:18.524Z,23.87
2019-02-06T19:09:49.727Z,23.52
2019-02-06T19:12:22.206Z,22.87
2019-02-06T19:14:54.643Z,22.77
2019-02-06T19:17:27.862Z,23.83
2019-02-06T19:20:00.301Z,23.87
2019-02-06T19:22:33.515Z,23.62
2019-02-06T19:25:02.795Z,24.20
2019-02-06T19:27:33.429Z,26.20
2019-02-06T19:30:03.445Z,26.00
2019-02-06T19:32:34.541Z,24.10
2019-02-06T19:35:09.057Z,24.95
2019-02-06T19:37:42.563Z,24.50
2019-02-06T19:40:14.557Z,24.73
2019-02-06T19:42:46.555Z,23.95
2019-02-06T19:45:22.173Z,25.50
2019-02-06T19:47:57.261Z,24.20
2019-02-06T19:50:30.504Z,24.07
2019-02-06T19:52:59.840Z,23.57
2019-02-06T19:55:29.509Z,25.27
2019-02-06T19:57:58.906Z,22.93
2019-02-06T20:00:34.041Z,23.55
2019-02-06T20:03:08.219Z,24.32
2019-02-06T20:05:40.330Z,24.07
2019-02-06T20:08:32.343Z,24.60
2019-02-06T20:11:05.956Z,22.77
2019-02-06T20:13:38.402Z,24.63
2019-02-06T20:16:21.394Z,23.25
2019-02-06T20:18:52.447Z,22.50
2019-02-06T20:21:21.692Z,21.85
2019-02-06T20:23:52.490Z,23.10
2019-02-06T20:26:31.419Z,22.42
2019-02-06T20:29:04.120Z,22.90
2019-02-06T20:31:40.010Z,21.73
2019-02-06T20:34:09.366Z,22.07
2019-02-06T20:36:38.570Z,22.57
2019-02-06T20:39:10.261Z,22.40
2019-02-06T20:41:39.806Z,22.20
2019-02-06T20:44:12.032Z,21.68
2019-02-06T20:46:41.487Z,23.57
2019-02-06T20:49:16.620Z,22.87
2019-02-06T20:51:47.431Z,22.93
2019-02-06T20:54:16.982Z,21.63
2019-02-06T20:56:46.275Z,20.48
2019-02-06T20:59:15.480Z,22.27
2019-02-06T21:01:44.772Z,22.70
2019-02-06T21:04:16.857Z,23.47
2019-02-06T21:06:49.480Z,24.23
2019-02-06T21:09:23.378Z,22.67
2019-02-06T21:11:52.705Z,23.38
2019-02-06T21:14:21.935Z,24.50
2019-02-06T21:17:01.077Z,22.75
2019-02-06T21:19:50.570Z,23.67
2019-02-06T21:22:20.040Z,23.57
2019-02-06T21:24:52.780Z,23.85
2019-02-06T21:27:22.237Z,23.55
2019-02-06T21:29:53.123Z,24.15
2019-02-06T21:32:22.394Z,22.87
2019-02-06T21:34:51.845Z,23.75
2019-02-06T21:37:21.207Z,24.15
2019-02-06T21:39:50.405Z,22.30
2019-02-06T21:42:20.091Z,23.10
2019-02-06T21:44:56.735Z,21.45
2019-02-06T21:47:25.993Z,23.90
2019-02-06T21:49:58.133Z,21.70
2019-02-06T21:52:27.611Z,22.32
2019-02-06T21:54:56.917Z,22.42
2019-02-06T21:57:26.633Z,22.80
2019-02-06T21:59:55.917Z,23.25
2019-02-06T22:02:27.833Z,24.97
2019-02-06T22:04:58.175Z,24.60
2019-02-06T22:07:35.415Z,23.65
2019-02-06T22:10:12.275Z,23.62
2019-02-06T22:12:41.613Z,24.98
2019-02-06T22:15:14.398Z,26.40
2019-02-06T22:17:44.466Z,24.50
2019-02-06T22:22:43.781Z,24.30
2019-02-06T22:25:18.132Z,24.80
2019-02-06T22:27:50.625Z,25.50
2019-02-06T22:30:26.118Z,25.17
2019-02-06T22:33:05.427Z,28.95
2019-02-06T22:35:34.610Z,27.30
2019-02-06T22:38:03.800Z,27.87
2019-02-06T22:40:34.703Z,27.67
2019-02-06T22:43:03.973Z,31.63
2019-02-06T22:45:33.206Z,26.73
2019-02-06T22:48:02.868Z,27.65
2019-02-06T22:50:36.410Z,25.15
2019-02-06T22:53:08.607Z,26.57
2019-02-06T22:55:38.089Z,27.90
2019-02-06T22:58:07.434Z,27.17
2019-02-06T23:00:56.662Z,29.55
2019-02-06T23:03:38.166Z,29.85
2019-02-06T23:06:10.038Z,28.77
2019-02-06T23:08:39.847Z,28.40
2019-02-06T23:11:10.194Z,29.23
2019-02-06T23:13:41.207Z,28.65
2019-02-06T23:16:15.062Z,29.00
2019-02-06T23:18:46.670Z,28.92
2019-02-06T23:21:15.938Z,28.38
2019-02-06T23:23:45.112Z,27.70
2019-02-06T23:26:23.420Z,27.57
2019-02-06T23:28:52.816Z,26.70
2019-02-06T23:31:22.067Z,27.67
2019-02-06T23:33:53.348Z,28.30
2019-02-06T23:36:22.569Z,25.25
2019-02-06T23:38:51.730Z,26.57
2019-02-06T23:41:22.567Z,26.63
2019-02-06T23:43:53.383Z,25.32
2019-02-06T23:46:22.701Z,25.70
2019-02-06T23:48:52.275Z,24.77
2019-02-06T23:51:23.167Z,24.40
2019-02-06T23:53:54.145Z,25.70
2019-02-06T23:56:23.497Z,23.95
